sensor_id;sensor_type;location;lat;lon;timestamp;P1;durP1;ratioP1;P2;durP2;ratioP2
72437;SDS011;60444;43.534;-5.674;2022-07-29T00:00:40;5.68;;;1.70;;
72437;SDS011;60444;43.534;-5.674;2022-07-29T00:03:09;6.43;;;2.65;;
72437;SDS011;60444;43.534;-5.674;2022-07-29T00:05:41;6.17;;;2.43;;
72437;SDS011;60444;43.534;-5.674;2022-07-29T00:08:07;6.65;;;2.17;;
72437;SDS011;60444;43.534;-5.674;2022-07-29T00:10:34;7.03;;;2.22;;
72437;SDS011;60444;43.534;-5.674;2022-07-29T00:13:00;6.95;;;2.38;;
72437;SDS011;60444;43.534;-5.674;2022-07-29T00:15:25;7.83;;;2.10;;
72437;SDS011;60444;43.534;-5.674;2022-07-29T00:17:51;6.30;;;2.10;;
72437;SDS011;60444;43.534;-5.674;2022-07-29T00:20:17;5.60;;;2.13;;
72437;SDS011;60444;43.534;-5.674;2022-07-29T00:22:43;5.63;;;2.10;;
72437;SDS011;60444;43.534;-5.674;2022-07-29T00:25:08;4.97;;;1.80;;
72437;SDS011;60444;43.534;-5.674;2022-07-29T00:27:35;6.00;;;1.85;;
72437;SDS011;60444;43.534;-5.674;2022-07-29T00:30:02;6.13;;;2.10;;
72437;SDS011;60444;43.534;-5.674;2022-07-29T00:32:29;5.60;;;1.80;;
72437;SDS011;60444;43.534;-5.674;2022-07-29T00:34:54;6.17;;;2.40;;
72437;SDS011;60444;43.534;-5.674;2022-07-29T00:37:38;5.60;;;1.83;;
72437;SDS011;60444;43.534;-5.674;2022-07-29T00:40:04;7.23;;;2.43;;
72437;SDS011;60444;43.534;-5.674;2022-07-29T00:42:30;5.18;;;1.67;;
72437;SDS011;60444;43.534;-5.674;2022-07-29T00:44:55;5.60;;;1.80;;
72437;SDS011;60444;43.534;-5.674;2022-07-29T00:47:21;6.60;;;2.30;;
72437;SDS011;60444;43.534;-5.674;2022-07-29T00:49:46;6.73;;;2.67;;
72437;SDS011;60444;43.534;-5.674;2022-07-29T00:52:12;5.97;;;1.80;;
72437;SDS011;60444;43.534;-5.674;2022-07-29T00:54:39;6.15;;;2.20;;
72437;SDS011;60444;43.534;-5.674;2022-07-29T00:57:06;6.15;;;2.15;;
72437;SDS011;60444;43.534;-5.674;2022-07-29T00:59:35;5.95;;;1.88;;
72437;SDS011;60444;43.534;-5.674;2022-07-29T01:02:01;6.37;;;2.17;;
72437;SDS011;60444;43.534;-5.674;2022-07-29T01:04:27;6.90;;;2.40;;
72437;SDS011;60444;43.534;-5.674;2022-07-29T01:06:54;8.68;;;2.85;;
72437;SDS011;60444;43.534;-5.674;2022-07-29T01:09:20;7.37;;;3.17;;
72437;SDS011;60444;43.534;-5.674;2022-07-29T01:11:47;6.03;;;2.40;;
72437;SDS011;60444;43.534;-5.674;2022-07-29T01:14:14;6.00;;;2.00;;
72437;SDS011;60444;43.534;-5.674;2022-07-29T01:16:59;6.53;;;2.13;;
72437;SDS011;60444;43.534;-5.674;2022-07-29T01:30:08;5.22;;;2.15;;
72437;SDS011;60444;43.534;-5.674;2022-07-29T01:32:36;5.47;;;1.80;;
72437;SDS011;60444;43.534;-5.674;2022-07-29T01:35:08;5.90;;;1.98;;
72437;SDS011;60444;43.534;-5.674;2022-07-29T01:37:44;4.93;;;2.10;;
72437;SDS011;60444;43.534;-5.674;2022-07-29T01:40:22;5.10;;;1.80;;
72437;SDS011;60444;43.534;-5.674;2022-07-29T01:43:10;5.05;;;1.90;;
72437;SDS011;60444;43.534;-5.674;2022-07-29T01:48:42;5.63;;;1.95;;
72437;SDS011;60444;43.534;-5.674;2022-07-29T01:51:18;5.70;;;2.30;;
72437;SDS011;60444;43.534;-5.674;2022-07-29T01:53:58;5.55;;;2.10;;
72437;SDS011;60444;43.534;-5.674;2022-07-29T01:56:29;5.75;;;2.17;;
72437;SDS011;60444;43.534;-5.674;2022-07-29T01:58:58;5.70;;;2.03;;
72437;SDS011;60444;43.534;-5.674;2022-07-29T02:01:26;4.90;;;1.98;;
72437;SDS011;60444;43.534;-5.674;2022-07-29T02:03:53;4.65;;;1.90;;
72437;SDS011;60444;43.534;-5.674;2022-07-29T02:06:21;5.63;;;2.05;;
72437;SDS011;60444;43.534;-5.674;2022-07-29T02:08:48;6.05;;;2.00;;
72437;SDS011;60444;43.534;-5.674;2022-07-29T02:11:16;6.10;;;1.87;;
72437;SDS011;60444;43.534;-5.674;2022-07-29T02:13:41;4.60;;;1.73;;
72437;SDS011;60444;43.534;-5.674;2022-07-29T02:16:09;5.13;;;2.13;;
72437;SDS011;60444;43.534;-5.674;2022-07-29T02:18:37;5.70;;;2.33;;
72437;SDS011;60444;43.534;-5.674;2022-07-29T02:21:06;6.50;;;2.43;;
72437;SDS011;60444;43.534;-5.674;2022-07-29T02:23:33;5.70;;;1.98;;
72437;SDS011;60444;43.534;-5.674;2022-07-29T02:26:00;5.90;;;2.05;;
72437;SDS011;60444;43.534;-5.674;2022-07-29T02:28:28;5.93;;;2.08;;
72437;SDS011;60444;43.534;-5.674;2022-07-29T02:30:57;6.65;;;2.33;;
72437;SDS011;60444;43.534;-5.674;2022-07-29T02:33:29;5.47;;;1.90;;
72437;SDS011;60444;43.534;-5.674;2022-07-29T02:35:56;4.95;;;1.67;;
72437;SDS011;60444;43.534;-5.674;2022-07-29T02:38:24;7.65;;;2.70;;
72437;SDS011;60444;43.534;-5.674;2022-07-29T02:41:11;6.25;;;2.08;;
72437;SDS011;60444;43.534;-5.674;2022-07-29T02:43:41;7.95;;;3.03;;
72437;SDS011;60444;43.534;-5.674;2022-07-29T02:46:11;8.97;;;2.30;;
72437;SDS011;60444;43.534;-5.674;2022-07-29T02:48:44;7.18;;;2.45;;
72437;SDS011;60444;43.534;-5.674;2022-07-29T02:51:22;6.35;;;2.50;;
72437;SDS011;60444;43.534;-5.674;2022-07-29T02:53:53;6.55;;;1.80;;
72437;SDS011;60444;43.534;-5.674;2022-07-29T02:56:23;7.75;;;2.65;;
72437;SDS011;60444;43.534;-5.674;2022-07-29T02:58:56;6.00;;;1.90;;
72437;SDS011;60444;43.534;-5.674;2022-07-29T03:01:27;7.20;;;2.15;;
72437;SDS011;60444;43.534;-5.674;2022-07-29T03:03:56;7.78;;;2.20;;
72437;SDS011;60444;43.534;-5.674;2022-07-29T03:06:26;5.22;;;2.03;;
72437;SDS011;60444;43.534;-5.674;2022-07-29T03:08:54;8.38;;;2.75;;
72437;SDS011;60444;43.534;-5.674;2022-07-29T03:11:20;8.87;;;3.07;;
72437;SDS011;60444;43.534;-5.674;2022-07-29T03:13:47;9.93;;;3.45;;
72437;SDS011;60444;43.534;-5.674;2022-07-29T03:16:12;9.45;;;2.95;;
72437;SDS011;60444;43.534;-5.674;2022-07-29T03:18:39;6.00;;;2.22;;
72437;SDS011;60444;43.534;-5.674;2022-07-29T03:21:05;4.83;;;1.70;;
72437;SDS011;60444;43.534;-5.674;2022-07-29T03:23:31;8.50;;;3.88;;
72437;SDS011;60444;43.534;-5.674;2022-07-29T03:25:57;7.37;;;3.10;;
72437;SDS011;60444;43.534;-5.674;2022-07-29T03:28:22;6.65;;;2.17;;
72437;SDS011;60444;43.534;-5.674;2022-07-29T03:30:48;7.00;;;2.63;;
72437;SDS011;60444;43.534;-5.674;2022-07-29T03:33:14;5.80;;;1.70;;
72437;SDS011;60444;43.534;-5.674;2022-07-29T03:35:40;6.00;;;1.83;;
72437;SDS011;60444;43.534;-5.674;2022-07-29T03:38:05;7.28;;;2.20;;
72437;SDS011;60444;43.534;-5.674;2022-07-29T03:40:32;6.97;;;2.45;;
72437;SDS011;60444;43.534;-5.674;2022-07-29T03:43:01;6.87;;;1.87;;
72437;SDS011;60444;43.534;-5.674;2022-07-29T03:45:29;6.28;;;2.30;;
72437;SDS011;60444;43.534;-5.674;2022-07-29T03:47:59;6.25;;;2.20;;
72437;SDS011;60444;43.534;-5.674;2022-07-29T03:50:28;5.95;;;2.30;;
72437;SDS011;60444;43.534;-5.674;2022-07-29T03:52:55;9.73;;;2.03;;
72437;SDS011;60444;43.534;-5.674;2022-07-29T03:55:20;5.80;;;2.00;;
72437;SDS011;60444;43.534;-5.674;2022-07-29T03:57:46;6.63;;;2.10;;
72437;SDS011;60444;43.534;-5.674;2022-07-29T04:00:14;5.82;;;1.75;;
72437;SDS011;60444;43.534;-5.674;2022-07-29T04:02:40;5.88;;;2.47;;
72437;SDS011;60444;43.534;-5.674;2022-07-29T04:05:13;5.87;;;2.10;;
72437;SDS011;60444;43.534;-5.674;2022-07-29T04:07:42;5.75;;;2.00;;
72437;SDS011;60444;43.534;-5.674;2022-07-29T04:10:12;5.80;;;2.00;;
72437;SDS011;60444;43.534;-5.674;2022-07-29T04:12:38;5.30;;;2.10;;
72437;SDS011;60444;43.534;-5.674;2022-07-29T04:15:04;5.60;;;2.10;;
72437;SDS011;60444;43.534;-5.674;2022-07-29T04:17:30;4.90;;;1.70;;
72437;SDS011;60444;43.534;-5.674;2022-07-29T04:19:55;7.30;;;2.10;;
72437;SDS011;60444;43.534;-5.674;2022-07-29T04:22:21;5.00;;;2.00;;
72437;SDS011;60444;43.534;-5.674;2022-07-29T04:24:46;4.90;;;1.80;;
72437;SDS011;60444;43.534;-5.674;2022-07-29T04:27:12;6.07;;;1.90;;
72437;SDS011;60444;43.534;-5.674;2022-07-29T04:29:37;4.45;;;1.70;;
72437;SDS011;60444;43.534;-5.674;2022-07-29T04:32:03;4.90;;;1.97;;
72437;SDS011;60444;43.534;-5.674;2022-07-29T04:34:29;5.15;;;1.70;;
72437;SDS011;60444;43.534;-5.674;2022-07-29T04:36:54;5.00;;;1.80;;
72437;SDS011;60444;43.534;-5.674;2022-07-29T04:39:20;5.82;;;1.85;;
72437;SDS011;60444;43.534;-5.674;2022-07-29T04:41:46;5.63;;;2.30;;
72437;SDS011;60444;43.534;-5.674;2022-07-29T04:44:12;5.40;;;2.03;;
72437;SDS011;60444;43.534;-5.674;2022-07-29T04:46:37;5.30;;;1.80;;
72437;SDS011;60444;43.534;-5.674;2022-07-29T04:49:03;6.28;;;2.00;;
72437;SDS011;60444;43.534;-5.674;2022-07-29T04:51:29;5.37;;;1.97;;
72437;SDS011;60444;43.534;-5.674;2022-07-29T04:53:54;5.07;;;1.63;;
72437;SDS011;60444;43.534;-5.674;2022-07-29T04:56:20;4.73;;;1.70;;
72437;SDS011;60444;43.534;-5.674;2022-07-29T04:58:45;4.90;;;1.60;;
72437;SDS011;60444;43.534;-5.674;2022-07-29T05:01:11;4.50;;;1.63;;
72437;SDS011;60444;43.534;-5.674;2022-07-29T05:03:36;4.70;;;1.87;;
72437;SDS011;60444;43.534;-5.674;2022-07-29T05:06:02;6.43;;;1.87;;
72437;SDS011;60444;43.534;-5.674;2022-07-29T05:08:28;4.70;;;1.75;;
72437;SDS011;60444;43.534;-5.674;2022-07-29T05:10:53;4.73;;;1.40;;
72437;SDS011;60444;43.534;-5.674;2022-07-29T05:13:19;5.95;;;1.85;;
72437;SDS011;60444;43.534;-5.674;2022-07-29T05:15:45;5.20;;;1.80;;
72437;SDS011;60444;43.534;-5.674;2022-07-29T05:18:10;4.80;;;1.70;;
72437;SDS011;60444;43.534;-5.674;2022-07-29T05:20:36;4.20;;;1.57;;
72437;SDS011;60444;43.534;-5.674;2022-07-29T05:23:02;5.22;;;1.75;;
72437;SDS011;60444;43.534;-5.674;2022-07-29T05:25:28;6.18;;;2.00;;
72437;SDS011;60444;43.534;-5.674;2022-07-29T05:27:54;6.03;;;1.67;;
72437;SDS011;60444;43.534;-5.674;2022-07-29T05:30:21;4.60;;;1.52;;
72437;SDS011;60444;43.534;-5.674;2022-07-29T05:32:46;5.40;;;1.63;;
72437;SDS011;60444;43.534;-5.674;2022-07-29T05:35:12;4.70;;;1.50;;
72437;SDS011;60444;43.534;-5.674;2022-07-29T05:37:39;6.13;;;1.83;;
72437;SDS011;60444;43.534;-5.674;2022-07-29T05:40:04;5.77;;;1.93;;
72437;SDS011;60444;43.534;-5.674;2022-07-29T05:42:31;4.70;;;1.92;;
72437;SDS011;60444;43.534;-5.674;2022-07-29T05:44:56;5.33;;;1.77;;
72437;SDS011;60444;43.534;-5.674;2022-07-29T05:47:22;5.63;;;2.00;;
72437;SDS011;60444;43.534;-5.674;2022-07-29T05:49:48;5.30;;;1.70;;
72437;SDS011;60444;43.534;-5.674;2022-07-29T05:52:14;11.27;;;4.50;;
72437;SDS011;60444;43.534;-5.674;2022-07-29T05:54:40;7.13;;;2.30;;
72437;SDS011;60444;43.534;-5.674;2022-07-29T05:57:06;5.00;;;2.13;;
72437;SDS011;60444;43.534;-5.674;2022-07-29T05:59:40;5.68;;;2.03;;
72437;SDS011;60444;43.534;-5.674;2022-07-29T06:02:06;6.35;;;2.00;;
72437;SDS011;60444;43.534;-5.674;2022-07-29T06:04:31;6.53;;;2.00;;
72437;SDS011;60444;43.534;-5.674;2022-07-29T06:06:58;5.13;;;1.80;;
72437;SDS011;60444;43.534;-5.674;2022-07-29T06:09:24;6.67;;;1.80;;
72437;SDS011;60444;43.534;-5.674;2022-07-29T06:11:51;4.90;;;1.60;;
72437;SDS011;60444;43.534;-5.674;2022-07-29T06:14:17;4.68;;;1.67;;
72437;SDS011;60444;43.534;-5.674;2022-07-29T06:16:43;4.63;;;1.70;;
72437;SDS011;60444;43.534;-5.674;2022-07-29T06:19:08;5.55;;;1.65;;
72437;SDS011;60444;43.534;-5.674;2022-07-29T06:21:34;5.43;;;1.70;;
72437;SDS011;60444;43.534;-5.674;2022-07-29T06:23:59;7.23;;;2.27;;
72437;SDS011;60444;43.534;-5.674;2022-07-29T06:26:25;6.30;;;2.07;;
72437;SDS011;60444;43.534;-5.674;2022-07-29T06:28:50;4.43;;;1.53;;
72437;SDS011;60444;43.534;-5.674;2022-07-29T06:31:16;5.38;;;1.85;;
72437;SDS011;60444;43.534;-5.674;2022-07-29T06:33:41;7.23;;;2.10;;
72437;SDS011;60444;43.534;-5.674;2022-07-29T06:36:07;6.13;;;2.17;;
72437;SDS011;60444;43.534;-5.674;2022-07-29T06:38:33;6.60;;;2.00;;
72437;SDS011;60444;43.534;-5.674;2022-07-29T06:40:59;5.93;;;2.10;;
72437;SDS011;60444;43.534;-5.674;2022-07-29T06:43:29;7.70;;;3.40;;
72437;SDS011;60444;43.534;-5.674;2022-07-29T06:46:00;7.60;;;2.73;;
72437;SDS011;60444;43.534;-5.674;2022-07-29T06:48:28;9.02;;;2.90;;
72437;SDS011;60444;43.534;-5.674;2022-07-29T06:50:54;10.35;;;3.40;;
72437;SDS011;60444;43.534;-5.674;2022-07-29T06:53:19;6.27;;;2.50;;
72437;SDS011;60444;43.534;-5.674;2022-07-29T06:55:45;10.43;;;3.30;;
72437;SDS011;60444;43.534;-5.674;2022-07-29T06:58:11;5.83;;;2.17;;
72437;SDS011;60444;43.534;-5.674;2022-07-29T07:00:37;6.65;;;1.85;;
72437;SDS011;60444;43.534;-5.674;2022-07-29T07:03:02;5.72;;;1.67;;
72437;SDS011;60444;43.534;-5.674;2022-07-29T07:05:28;4.83;;;1.60;;
72437;SDS011;60444;43.534;-5.674;2022-07-29T07:07:54;6.20;;;2.00;;
72437;SDS011;60444;43.534;-5.674;2022-07-29T07:10:19;9.90;;;3.40;;
72437;SDS011;60444;43.534;-5.674;2022-07-29T07:12:45;9.97;;;4.10;;
72437;SDS011;60444;43.534;-5.674;2022-07-29T07:15:10;11.70;;;4.10;;
72437;SDS011;60444;43.534;-5.674;2022-07-29T07:17:36;9.87;;;3.33;;
72437;SDS011;60444;43.534;-5.674;2022-07-29T07:20:03;8.88;;;3.53;;
72437;SDS011;60444;43.534;-5.674;2022-07-29T07:22:30;9.48;;;3.33;;
72437;SDS011;60444;43.534;-5.674;2022-07-29T07:24:55;11.03;;;3.27;;
72437;SDS011;60444;43.534;-5.674;2022-07-29T07:27:21;7.65;;;2.88;;
72437;SDS011;60444;43.534;-5.674;2022-07-29T07:29:46;8.53;;;2.50;;
72437;SDS011;60444;43.534;-5.674;2022-07-29T07:32:12;8.63;;;2.60;;
72437;SDS011;60444;43.534;-5.674;2022-07-29T07:34:38;8.35;;;2.85;;
72437;SDS011;60444;43.534;-5.674;2022-07-29T07:37:04;8.67;;;2.27;;
72437;SDS011;60444;43.534;-5.674;2022-07-29T07:39:29;5.97;;;1.92;;
72437;SDS011;60444;43.534;-5.674;2022-07-29T07:41:55;5.60;;;1.90;;
72437;SDS011;60444;43.534;-5.674;2022-07-29T07:44:21;8.90;;;2.03;;
72437;SDS011;60444;43.534;-5.674;2022-07-29T07:46:46;7.73;;;2.67;;
72437;SDS011;60444;43.534;-5.674;2022-07-29T07:49:12;7.38;;;1.77;;
72437;SDS011;60444;43.534;-5.674;2022-07-29T07:51:37;4.67;;;1.27;;
72437;SDS011;60444;43.534;-5.674;2022-07-29T07:54:03;9.15;;;1.83;;
72437;SDS011;60444;43.534;-5.674;2022-07-29T07:56:29;6.70;;;1.60;;
72437;SDS011;60444;43.534;-5.674;2022-07-29T07:58:54;5.37;;;1.63;;
72437;SDS011;60444;43.534;-5.674;2022-07-29T08:01:20;5.82;;;1.98;;
72437;SDS011;60444;43.534;-5.674;2022-07-29T08:03:48;5.90;;;1.70;;
72437;SDS011;60444;43.534;-5.674;2022-07-29T08:06:15;6.13;;;1.73;;
72437;SDS011;60444;43.534;-5.674;2022-07-29T08:08:41;5.18;;;1.63;;
72437;SDS011;60444;43.534;-5.674;2022-07-29T08:11:06;5.30;;;1.70;;
72437;SDS011;60444;43.534;-5.674;2022-07-29T08:13:32;5.47;;;1.60;;
72437;SDS011;60444;43.534;-5.674;2022-07-29T08:15:58;5.25;;;1.58;;
72437;SDS011;60444;43.534;-5.674;2022-07-29T08:18:36;7.23;;;1.80;;
72437;SDS011;60444;43.534;-5.674;2022-07-29T08:21:03;5.03;;;1.42;;
72437;SDS011;60444;43.534;-5.674;2022-07-29T08:23:29;5.70;;;1.88;;
72437;SDS011;60444;43.534;-5.674;2022-07-29T08:26:05;7.25;;;2.20;;
72437;SDS011;60444;43.534;-5.674;2022-07-29T08:28:35;6.10;;;2.40;;
72437;SDS011;60444;43.534;-5.674;2022-07-29T08:31:04;5.43;;;1.80;;
72437;SDS011;60444;43.534;-5.674;2022-07-29T08:33:30;5.95;;;1.63;;
72437;SDS011;60444;43.534;-5.674;2022-07-29T08:35:56;7.00;;;1.70;;
72437;SDS011;60444;43.534;-5.674;2022-07-29T08:38:21;5.63;;;1.67;;
72437;SDS011;60444;43.534;-5.674;2022-07-29T08:40:47;6.83;;;2.03;;
72437;SDS011;60444;43.534;-5.674;2022-07-29T08:43:12;5.68;;;2.22;;
72437;SDS011;60444;43.534;-5.674;2022-07-29T08:45:43;6.40;;;2.27;;
72437;SDS011;60444;43.534;-5.674;2022-07-29T08:48:13;8.00;;;2.17;;
72437;SDS011;60444;43.534;-5.674;2022-07-29T08:50:40;7.03;;;2.35;;
72437;SDS011;60444;43.534;-5.674;2022-07-29T08:53:09;6.50;;;2.35;;
72437;SDS011;60444;43.534;-5.674;2022-07-29T08:55:39;5.87;;;1.80;;
72437;SDS011;60444;43.534;-5.674;2022-07-29T08:58:06;8.23;;;1.92;;
72437;SDS011;60444;43.534;-5.674;2022-07-29T09:00:32;6.65;;;1.63;;
72437;SDS011;60444;43.534;-5.674;2022-07-29T09:03:01;9.27;;;2.67;;
72437;SDS011;60444;43.534;-5.674;2022-07-29T09:05:29;6.10;;;1.90;;
72437;SDS011;60444;43.534;-5.674;2022-07-29T09:07:56;7.07;;;2.00;;
72437;SDS011;60444;43.534;-5.674;2022-07-29T09:10:22;9.55;;;2.00;;
72437;SDS011;60444;43.534;-5.674;2022-07-29T09:12:48;6.70;;;1.90;;
72437;SDS011;60444;43.534;-5.674;2022-07-29T09:15:14;7.83;;;2.00;;
72437;SDS011;60444;43.534;-5.674;2022-07-29T09:17:46;6.28;;;1.70;;
72437;SDS011;60444;43.534;-5.674;2022-07-29T09:20:16;7.15;;;2.00;;
72437;SDS011;60444;43.534;-5.674;2022-07-29T09:22:44;5.77;;;1.83;;
72437;SDS011;60444;43.534;-5.674;2022-07-29T09:25:37;8.35;;;2.20;;
72437;SDS011;60444;43.534;-5.674;2022-07-29T09:28:08;8.35;;;2.60;;
72437;SDS011;60444;43.534;-5.674;2022-07-29T09:30:35;8.48;;;2.63;;
72437;SDS011;60444;43.534;-5.674;2022-07-29T09:33:14;5.93;;;1.98;;
72437;SDS011;60444;43.534;-5.674;2022-07-29T09:35:40;7.83;;;2.10;;
72437;SDS011;60444;43.534;-5.674;2022-07-29T09:38:12;6.17;;;1.90;;
72437;SDS011;60444;43.534;-5.674;2022-07-29T09:40:39;8.40;;;2.38;;
72437;SDS011;60444;43.534;-5.674;2022-07-29T09:43:12;6.40;;;2.40;;
72437;SDS011;60444;43.534;-5.674;2022-07-29T09:45:39;6.95;;;2.40;;
72437;SDS011;60444;43.534;-5.674;2022-07-29T09:48:18;6.53;;;2.72;;
72437;SDS011;60444;43.534;-5.674;2022-07-29T09:50:45;6.63;;;2.33;;
72437;SDS011;60444;43.534;-5.674;2022-07-29T09:56:00;7.05;;;2.05;;
72437;SDS011;60444;43.534;-5.674;2022-07-29T09:58:27;8.13;;;1.98;;
72437;SDS011;60444;43.534;-5.674;2022-07-29T10:00:53;6.50;;;1.93;;
72437;SDS011;60444;43.534;-5.674;2022-07-29T10:03:20;7.22;;;1.90;;
72437;SDS011;60444;43.534;-5.674;2022-07-29T10:05:47;6.78;;;1.98;;
72437;SDS011;60444;43.534;-5.674;2022-07-29T10:08:33;6.22;;;2.00;;
72437;SDS011;60444;43.534;-5.674;2022-07-29T10:11:15;5.73;;;2.00;;
72437;SDS011;60444;43.534;-5.674;2022-07-29T10:13:42;6.37;;;2.40;;
72437;SDS011;60444;43.534;-5.674;2022-07-29T10:16:09;6.75;;;2.30;;
72437;SDS011;60444;43.534;-5.674;2022-07-29T10:18:34;6.13;;;2.03;;
72437;SDS011;60444;43.534;-5.674;2022-07-29T10:21:01;6.33;;;1.97;;
72437;SDS011;60444;43.534;-5.674;2022-07-29T10:23:30;7.32;;;2.40;;
72437;SDS011;60444;43.534;-5.674;2022-07-29T10:25:56;6.25;;;2.17;;
72437;SDS011;60444;43.534;-5.674;2022-07-29T10:28:23;7.40;;;2.38;;
72437;SDS011;60444;43.534;-5.674;2022-07-29T10:30:50;6.90;;;1.95;;
72437;SDS011;60444;43.534;-5.674;2022-07-29T10:38:41;6.07;;;2.10;;
72437;SDS011;60444;43.534;-5.674;2022-07-29T10:44:16;5.75;;;2.13;;
72437;SDS011;60444;43.534;-5.674;2022-07-29T10:46:46;12.17;;;2.90;;
72437;SDS011;60444;43.534;-5.674;2022-07-29T10:54:45;6.00;;;2.10;;
72437;SDS011;60444;43.534;-5.674;2022-07-29T10:59:42;7.90;;;2.80;;
72437;SDS011;60444;43.534;-5.674;2022-07-29T11:02:55;8.02;;;2.50;;
72437;SDS011;60444;43.534;-5.674;2022-07-29T11:05:05;7.45;;;2.60;;
72437;SDS011;60444;43.534;-5.674;2022-07-29T11:10:37;7.00;;;2.17;;
72437;SDS011;60444;43.534;-5.674;2022-07-29T11:13:03;5.97;;;2.30;;
72437;SDS011;60444;43.534;-5.674;2022-07-29T11:15:28;8.65;;;2.30;;
72437;SDS011;60444;43.534;-5.674;2022-07-29T11:18:14;6.37;;;1.97;;
72437;SDS011;60444;43.534;-5.674;2022-07-29T11:20:43;5.03;;;1.58;;
72437;SDS011;60444;43.534;-5.674;2022-07-29T11:31:46;6.30;;;2.00;;
72437;SDS011;60444;43.534;-5.674;2022-07-29T11:39:35;6.75;;;2.08;;
72437;SDS011;60444;43.534;-5.674;2022-07-29T11:45:03;8.20;;;2.83;;
72437;SDS011;60444;43.534;-5.674;2022-07-29T11:47:31;7.75;;;3.20;;
72437;SDS011;60444;43.534;-5.674;2022-07-29T11:49:59;8.30;;;2.80;;
72437;SDS011;60444;43.534;-5.674;2022-07-29T11:52:37;7.38;;;3.08;;
72437;SDS011;60444;43.534;-5.674;2022-07-29T11:55:17;7.18;;;3.15;;
72437;SDS011;60444;43.534;-5.674;2022-07-29T11:58:05;7.10;;;2.60;;
72437;SDS011;60444;43.534;-5.674;2022-07-29T12:00:34;6.38;;;2.90;;
72437;SDS011;60444;43.534;-5.674;2022-07-29T12:03:04;9.17;;;3.10;;
72437;SDS011;60444;43.534;-5.674;2022-07-29T12:05:35;7.47;;;3.17;;
72437;SDS011;60444;43.534;-5.674;2022-07-29T12:08:20;9.98;;;4.05;;
72437;SDS011;60444;43.534;-5.674;2022-07-29T12:10:48;13.98;;;3.50;;
72437;SDS011;60444;43.534;-5.674;2022-07-29T12:13:16;7.82;;;3.00;;
72437;SDS011;60444;43.534;-5.674;2022-07-29T12:15:42;8.07;;;2.87;;
72437;SDS011;60444;43.534;-5.674;2022-07-29T12:18:18;7.85;;;3.20;;
72437;SDS011;60444;43.534;-5.674;2022-07-29T12:20:45;8.18;;;2.90;;
72437;SDS011;60444;43.534;-5.674;2022-07-29T12:23:12;7.65;;;3.13;;
72437;SDS011;60444;43.534;-5.674;2022-07-29T12:25:38;7.90;;;3.13;;
72437;SDS011;60444;43.534;-5.674;2022-07-29T12:28:06;7.27;;;2.97;;
72437;SDS011;60444;43.534;-5.674;2022-07-29T12:30:38;9.05;;;3.10;;
72437;SDS011;60444;43.534;-5.674;2022-07-29T12:33:16;8.60;;;3.20;;
72437;SDS011;60444;43.534;-5.674;2022-07-29T12:35:45;7.68;;;2.75;;
72437;SDS011;60444;43.534;-5.674;2022-07-29T12:38:13;7.00;;;2.85;;
72437;SDS011;60444;43.534;-5.674;2022-07-29T12:40:39;9.93;;;3.17;;
72437;SDS011;60444;43.534;-5.674;2022-07-29T12:43:24;5.97;;;2.75;;
72437;SDS011;60444;43.534;-5.674;2022-07-29T12:45:53;9.45;;;3.40;;
72437;SDS011;60444;43.534;-5.674;2022-07-29T12:51:00;6.55;;;2.80;;
72437;SDS011;60444;43.534;-5.674;2022-07-29T12:53:28;8.80;;;3.00;;
72437;SDS011;60444;43.534;-5.674;2022-07-29T12:55:54;7.63;;;3.05;;
72437;SDS011;60444;43.534;-5.674;2022-07-29T13:01:08;7.45;;;3.03;;
72437;SDS011;60444;43.534;-5.674;2022-07-29T13:03:49;7.00;;;2.75;;
72437;SDS011;60444;43.534;-5.674;2022-07-29T13:09:17;8.25;;;3.05;;
72437;SDS011;60444;43.534;-5.674;2022-07-29T13:11:49;6.70;;;2.60;;
72437;SDS011;60444;43.534;-5.674;2022-07-29T13:14:32;10.95;;;3.70;;
72437;SDS011;60444;43.534;-5.674;2022-07-29T13:17:00;8.02;;;2.55;;
72437;SDS011;60444;43.534;-5.674;2022-07-29T13:19:41;9.03;;;2.73;;
72437;SDS011;60444;43.534;-5.674;2022-07-29T13:22:12;6.88;;;2.85;;
72437;SDS011;60444;43.534;-5.674;2022-07-29T13:24:49;9.07;;;2.90;;
72437;SDS011;60444;43.534;-5.674;2022-07-29T13:27:17;6.85;;;3.17;;
72437;SDS011;60444;43.534;-5.674;2022-07-29T13:29:44;8.52;;;2.80;;
72437;SDS011;60444;43.534;-5.674;2022-07-29T13:32:11;10.00;;;2.33;;
72437;SDS011;60444;43.534;-5.674;2022-07-29T13:34:37;6.57;;;2.67;;
72437;SDS011;60444;43.534;-5.674;2022-07-29T13:37:03;7.68;;;2.70;;
72437;SDS011;60444;43.534;-5.674;2022-07-29T13:39:28;8.63;;;2.43;;
72437;SDS011;60444;43.534;-5.674;2022-07-29T13:41:55;7.05;;;2.85;;
72437;SDS011;60444;43.534;-5.674;2022-07-29T13:44:21;10.03;;;3.30;;
72437;SDS011;60444;43.534;-5.674;2022-07-29T13:46:46;6.95;;;2.33;;
72437;SDS011;60444;43.534;-5.674;2022-07-29T13:49:12;7.47;;;2.30;;
72437;SDS011;60444;43.534;-5.674;2022-07-29T13:51:37;6.40;;;2.33;;
72437;SDS011;60444;43.534;-5.674;2022-07-29T13:54:03;7.10;;;2.60;;
72437;SDS011;60444;43.534;-5.674;2022-07-29T13:56:29;7.80;;;2.50;;
72437;SDS011;60444;43.534;-5.674;2022-07-29T13:58:57;7.30;;;2.87;;
72437;SDS011;60444;43.534;-5.674;2022-07-29T14:01:23;6.93;;;2.53;;
72437;SDS011;60444;43.534;-5.674;2022-07-29T14:03:49;7.53;;;2.40;;
72437;SDS011;60444;43.534;-5.674;2022-07-29T14:06:14;6.57;;;2.23;;
72437;SDS011;60444;43.534;-5.674;2022-07-29T14:08:40;5.75;;;2.15;;
72437;SDS011;60444;43.534;-5.674;2022-07-29T14:11:06;6.17;;;2.23;;
72437;SDS011;60444;43.534;-5.674;2022-07-29T14:13:31;7.57;;;2.13;;
72437;SDS011;60444;43.534;-5.674;2022-07-29T14:15:57;5.93;;;1.90;;
72437;SDS011;60444;43.534;-5.674;2022-07-29T14:18:22;6.53;;;2.17;;
72437;SDS011;60444;43.534;-5.674;2022-07-29T14:20:48;5.47;;;1.92;;
72437;SDS011;60444;43.534;-5.674;2022-07-29T14:23:14;6.93;;;2.17;;
72437;SDS011;60444;43.534;-5.674;2022-07-29T14:25:40;7.50;;;2.30;;
72437;SDS011;60444;43.534;-5.674;2022-07-29T14:28:05;5.27;;;1.57;;
72437;SDS011;60444;43.534;-5.674;2022-07-29T14:30:31;4.93;;;1.67;;
72437;SDS011;60444;43.534;-5.674;2022-07-29T14:32:56;6.30;;;1.45;;
72437;SDS011;60444;43.534;-5.674;2022-07-29T14:35:22;6.93;;;1.83;;
72437;SDS011;60444;43.534;-5.674;2022-07-29T14:37:48;4.70;;;1.73;;
72437;SDS011;60444;43.534;-5.674;2022-07-29T14:40:14;5.63;;;1.90;;
72437;SDS011;60444;43.534;-5.674;2022-07-29T14:42:39;5.30;;;2.10;;
72437;SDS011;60444;43.534;-5.674;2022-07-29T14:45:06;5.00;;;1.63;;
72437;SDS011;60444;43.534;-5.674;2022-07-29T14:47:32;5.50;;;1.60;;
72437;SDS011;60444;43.534;-5.674;2022-07-29T14:49:58;5.45;;;1.65;;
72437;SDS011;60444;43.534;-5.674;2022-07-29T14:52:24;5.33;;;1.93;;
72437;SDS011;60444;43.534;-5.674;2022-07-29T14:54:49;3.87;;;1.23;;
72437;SDS011;60444;43.534;-5.674;2022-07-29T14:57:15;4.55;;;1.40;;
72437;SDS011;60444;43.534;-5.674;2022-07-29T14:59:43;5.13;;;1.20;;
72437;SDS011;60444;43.534;-5.674;2022-07-29T15:02:08;3.97;;;1.27;;
72437;SDS011;60444;43.534;-5.674;2022-07-29T15:04:34;4.90;;;1.40;;
72437;SDS011;60444;43.534;-5.674;2022-07-29T15:06:59;4.65;;;1.63;;
72437;SDS011;60444;43.534;-5.674;2022-07-29T15:09:25;3.77;;;1.23;;
72437;SDS011;60444;43.534;-5.674;2022-07-29T15:11:51;5.30;;;1.73;;
72437;SDS011;60444;43.534;-5.674;2022-07-29T15:14:16;4.90;;;1.70;;
72437;SDS011;60444;43.534;-5.674;2022-07-29T15:16:42;5.40;;;1.40;;
72437;SDS011;60444;43.534;-5.674;2022-07-29T15:19:11;3.83;;;1.55;;
72437;SDS011;60444;43.534;-5.674;2022-07-29T15:21:36;4.13;;;1.58;;
72437;SDS011;60444;43.534;-5.674;2022-07-29T15:24:02;4.53;;;1.60;;
72437;SDS011;60444;43.534;-5.674;2022-07-29T15:26:28;5.22;;;1.55;;
72437;SDS011;60444;43.534;-5.674;2022-07-29T15:28:53;4.37;;;1.40;;
72437;SDS011;60444;43.534;-5.674;2022-07-29T15:31:21;5.53;;;1.48;;
72437;SDS011;60444;43.534;-5.674;2022-07-29T15:33:46;3.35;;;1.10;;
72437;SDS011;60444;43.534;-5.674;2022-07-29T15:36:12;5.27;;;1.33;;
72437;SDS011;60444;43.534;-5.674;2022-07-29T15:38:38;4.60;;;1.50;;